»·PEaware :: N8408E KBUR-KLAS

N8408E :: KBUR-KLAS

FLIGHT INFORMATION

Flight Status: Arrived
Operator: Privately registered:
United States
More flights under this callsign
Pilot: John H. (22960)
Aircraft: CESSNA 172 SKYHAWK
(C172)
More flights by this aircraft type
Origin: KBUR Bob Hope-Burbank
United States
Destination: KLAS McCarran Intl
United States
More flights between these airports :: More routes between these airports
Route: +VNY3 DAG CRESO4
File this flight plan on PilotEdge
Remarks:
Altitude:
(Current/Filed)
11,000ft
Speed:
(Current/Filed)
115kts
Departed: 29-Jan-19 03:41 PM
Arrived: 29-Jan-19 06:13 PM
Distance/Time
Traveled:
193nm/2:32
Distance/Time
To Go:
Arrived

Flight Plot

Page will automatically refresh every two minutes.

Flight plan parsing failed; only flown route is shown


Map Options




Map Legend


Flown Route
Filed Route
Departure Airport
Arrival Airport
Navaid (VOR, NDB)
Fix

Horizontal Profiles

Position Reports

Time Latitude Longitude Heading Altitude Ground
Speed
29-Jan-19 15:15 34.196338 -118.367565 358 721ft 0kts
29-Jan-19 15:16 34.196338 -118.367565 358 721ft 0kts
29-Jan-19 15:17 34.196338 -118.367565 358 721ft 0kts
29-Jan-19 15:18 34.196338 -118.367565 358 721ft 0kts
29-Jan-19 15:19 34.196338 -118.367565 358 721ft 0kts
29-Jan-19 15:20 34.196338 -118.367565 358 721ft 0kts
29-Jan-19 15:21 34.196338 -118.367565 358 721ft 0kts
29-Jan-19 15:22 34.196338 -118.367565 358 721ft 0kts
29-Jan-19 15:23 34.196338 -118.367565 358 721ft 0kts
29-Jan-19 15:24 34.196338 -118.367565 358 721ft 0kts
29-Jan-19 15:25 34.196338 -118.367565 358 721ft 0kts
29-Jan-19 15:26 34.196338 -118.367565 358 721ft 0kts
29-Jan-19 15:27 34.196338 -118.367565 358 721ft 0kts
29-Jan-19 15:28 34.196338 -118.367565 358 721ft 0kts
29-Jan-19 15:29 34.196338 -118.367565 358 721ft 0kts
29-Jan-19 15:30 34.196338 -118.367565 358 721ft 0kts
29-Jan-19 15:31 34.196338 -118.367565 358 721ft 0kts
29-Jan-19 15:32 34.196338 -118.367565 358 721ft 0kts
29-Jan-19 15:33 34.196338 -118.367565 358 721ft 0kts
29-Jan-19 15:34 34.197017 -118.368943 309 724ft 2kts
29-Jan-19 15:35 34.197017 -118.368944 309 723ft 0kts
29-Jan-19 15:36 34.197017 -118.368944 309 723ft 0kts
29-Jan-19 15:37 34.197017 -118.368944 309 723ft 0kts
29-Jan-19 15:38 34.197017 -118.368944 309 723ft 0kts
29-Jan-19 15:39 34.197418 -118.369130 4 724ft 9kts
29-Jan-19 15:40 34.198390 -118.351770 102 1143ft 73kts
29-Jan-19 15:41 34.181988 -118.357345 210 1956ft 78kts
29-Jan-19 15:42 34.166796 -118.375946 222 2760ft 76kts
29-Jan-19 15:43 34.155369 -118.396224 284 3488ft 88kts
29-Jan-19 15:44 34.175346 -118.399614 7 4355ft 71kts
29-Jan-19 15:45 34.196028 -118.399690 8 5055ft 74kts
29-Jan-19 15:46 34.215774 -118.397434 7 5772ft 71kts
29-Jan-19 15:47 34.235342 -118.395921 6 6440ft 70kts
29-Jan-19 15:48 34.254631 -118.394785 6 7064ft 69kts
29-Jan-19 15:49 34.272838 -118.388256 27 7637ft 70kts
29-Jan-19 15:50 34.289221 -118.374782 31 8189ft 72kts
29-Jan-19 15:51 34.305485 -118.360550 32 8718ft 74kts
29-Jan-19 15:52 34.321536 -118.344801 26 9214ft 75kts
29-Jan-19 15:53 34.338367 -118.329718 28 9708ft 76kts
29-Jan-19 15:54 34.355708 -118.314165 26 10162ft 78kts
29-Jan-19 15:55 34.373491 -118.298423 26 10611ft 80kts
29-Jan-19 15:56 34.391581 -118.281783 27 11007ft 86kts
29-Jan-19 15:57 34.414404 -118.261161 25 11002ft 111kts
29-Jan-19 15:58 34.438796 -118.239952 28 10993ft 106kts
29-Jan-19 15:59 34.461853 -118.218541 21 11028ft 100kts
29-Jan-19 16:00 34.485113 -118.198067 27 11081ft 105kts
29-Jan-19 16:01 34.509510 -118.176147 28 11052ft 111kts
29-Jan-19 16:02 34.534088 -118.153325 28 10982ft 110kts
29-Jan-19 16:03 34.558550 -118.132148 26 11003ft 105kts
29-Jan-19 16:04 34.582065 -118.110071 31 11029ft 108kts
29-Jan-19 16:05 34.605541 -118.087928 27 11079ft 106kts
29-Jan-19 16:06 34.627794 -118.062916 75 11045ft 122kts
29-Jan-19 16:08 34.632844 -118.021974 76 11046ft 122kts
29-Jan-19 16:09 34.637332 -117.981047 74 10988ft 122kts
29-Jan-19 16:10 34.642526 -117.940710 77 10960ft 120kts
29-Jan-19 16:11 34.647021 -117.901149 74 11022ft 117kts
29-Jan-19 16:12 34.652080 -117.861782 74 11054ft 118kts
29-Jan-19 16:13 34.656489 -117.821565 74 11021ft 123kts
29-Jan-19 16:14 34.661410 -117.780697 73 10982ft 121kts
29-Jan-19 16:15 34.670223 -117.742075 61 10962ft 115kts
29-Jan-19 16:16 34.680345 -117.704737 63 10983ft 115kts
29-Jan-19 16:17 34.690241 -117.667442 67 11043ft 118kts
29-Jan-19 16:18 34.700029 -117.628950 65 10983ft 120kts
29-Jan-19 16:19 34.709730 -117.591226 65 10980ft 116kts
29-Jan-19 16:20 34.717852 -117.553011 66 11006ft 113kts
29-Jan-19 16:21 34.728138 -117.516608 64 11005ft 116kts
29-Jan-19 16:22 34.737548 -117.478721 65 11029ft 115kts
29-Jan-19 16:23 34.747147 -117.441318 66 11044ft 116kts
29-Jan-19 16:24 34.756709 -117.403623 64 11051ft 116kts
29-Jan-19 16:24 34.764780 -117.372144 64 11061ft 116kts
29-Jan-19 16:25 34.774407 -117.334324 66 11023ft 120kts
29-Jan-19 16:26 34.783894 -117.295675 64 11002ft 118kts
29-Jan-19 16:27 34.793545 -117.257241 62 10963ft 119kts
29-Jan-19 16:29 34.805035 -117.213131 65 10960ft 117kts
29-Jan-19 16:30 34.814686 -117.175705 64 10975ft 115kts
29-Jan-19 16:31 34.824135 -117.138707 63 10997ft 114kts
29-Jan-19 16:32 34.833814 -117.101571 57 11033ft 114kts
29-Jan-19 16:32 34.841838 -117.070404 65 11049ft 117kts
29-Jan-19 16:33 34.851431 -117.032479 64 10991ft 116kts
29-Jan-19 16:34 34.860839 -116.995111 63 10975ft 111kts
29-Jan-19 16:35 34.870356 -116.957971 62 10979ft 114kts
29-Jan-19 16:36 34.879879 -116.920666 67 10994ft 115kts
29-Jan-19 16:37 34.889300 -116.883084 66 10998ft 115kts
29-Jan-19 16:38 34.898648 -116.845875 66 10989ft 116kts
29-Jan-19 16:39 34.907666 -116.808281 64 10985ft 115kts
29-Jan-19 16:40 34.916612 -116.770677 67 10990ft 113kts
29-Jan-19 16:41 34.925577 -116.733211 68 10977ft 115kts
29-Jan-19 16:42 34.934744 -116.695830 68 10988ft 114kts
29-Jan-19 16:43 34.943257 -116.658533 69 11003ft 113kts
29-Jan-19 16:44 34.952337 -116.621275 69 10990ft 115kts
29-Jan-19 16:45 34.961455 -116.583911 55 11008ft 112kts
29-Jan-19 16:46 34.977053 -116.550807 54 11024ft 110kts
29-Jan-19 16:47 34.992181 -116.517611 56 11016ft 113kts
29-Jan-19 16:48 35.006946 -116.483979 56 11021ft 114kts
29-Jan-19 16:49 35.021382 -116.449810 57 11037ft 113kts
29-Jan-19 16:50 35.035758 -116.415459 57 11043ft 115kts
29-Jan-19 16:51 35.051038 -116.380085 56 11035ft 118kts
29-Jan-19 16:52 35.066755 -116.345197 58 11052ft 118kts
29-Jan-19 16:53 35.082316 -116.309718 58 11047ft 118kts
29-Jan-19 16:54 35.097675 -116.274155 59 11053ft 118kts
29-Jan-19 16:55 35.113100 -116.238473 58 11048ft 118kts
29-Jan-19 16:56 35.128784 -116.203046 58 11053ft 118kts
29-Jan-19 16:57 35.144506 -116.167780 58 11050ft 118kts
29-Jan-19 16:58 35.160246 -116.132594 58 11053ft 118kts
29-Jan-19 16:59 35.176241 -116.097419 59 11058ft 118kts
29-Jan-19 17:00 35.191236 -116.061587 58 11062ft 118kts
29-Jan-19 17:01 35.206884 -116.026271 57 11065ft 118kts
29-Jan-19 17:02 35.222573 -115.990898 58 11073ft 118kts
29-Jan-19 17:03 35.237733 -115.955108 63 11074ft 118kts
29-Jan-19 17:04 35.253400 -115.919486 58 11057ft 119kts
29-Jan-19 17:05 35.268863 -115.883698 59 11015ft 119kts
29-Jan-19 17:06 35.283799 -115.848719 57 11019ft 111kts
29-Jan-19 17:07 35.299012 -115.815322 53 11011ft 113kts
29-Jan-19 17:08 35.316119 -115.783595 43 11045ft 110kts
29-Jan-19 17:09 35.336369 -115.755202 45 11085ft 109kts
29-Jan-19 17:10 35.356604 -115.726891 40 11096ft 111kts
29-Jan-19 17:11 35.377509 -115.699073 38 10781ft 111kts
29-Jan-19 17:12 35.398574 -115.671513 42 10482ft 110kts
29-Jan-19 17:13 35.418474 -115.644439 44 10210ft 106kts
29-Jan-19 17:14 35.438905 -115.617143 43 10085ft 108kts
29-Jan-19 17:15 35.458973 -115.589896 44 10043ft 108kts
29-Jan-19 17:16 35.479085 -115.562795 45 10026ft 107kts
29-Jan-19 17:17 35.499155 -115.535844 45 9998ft 108kts
29-Jan-19 17:18 35.519316 -115.508893 44 9988ft 106kts
29-Jan-19 17:19 35.539232 -115.482146 46 9967ft 107kts
29-Jan-19 17:20 35.558809 -115.455113 44 9926ft 109kts
29-Jan-19 17:21 35.578701 -115.428572 42 9950ft 106kts
29-Jan-19 17:22 35.598544 -115.401530 45 9599ft 107kts
29-Jan-19 17:23 35.618432 -115.374472 46 9031ft 106kts
29-Jan-19 17:24 35.638112 -115.347685 45 8482ft 104kts
29-Jan-19 17:25 35.657688 -115.321329 46 7953ft 103kts
29-Jan-19 17:26 35.677180 -115.295336 46 7445ft 102kts
29-Jan-19 17:27 35.696388 -115.269232 45 7027ft 106kts
29-Jan-19 17:28 35.716797 -115.242214 45 7051ft 108kts
29-Jan-19 17:29 35.737589 -115.214381 45 7001ft 105kts
29-Jan-19 17:30 35.757476 -115.187370 46 6996ft 106kts
29-Jan-19 17:31 35.779158 -115.164164 5 6978ft 108kts
29-Jan-19 17:32 35.808516 -115.161876 6 7002ft 106kts
29-Jan-19 17:33 35.838007 -115.158480 6 7016ft 106kts
29-Jan-19 17:34 35.867343 -115.155629 5 7025ft 105kts
29-Jan-19 17:35 35.895897 -115.147484 18 7033ft 105kts
29-Jan-19 17:36 35.922543 -115.132117 27 7037ft 106kts
29-Jan-19 17:37 35.948196 -115.113961 28 7036ft 106kts
29-Jan-19 17:38 35.974014 -115.095644 29 7023ft 107kts
29-Jan-19 17:39 35.999707 -115.077020 27 6548ft 107kts
29-Jan-19 17:40 36.025145 -115.058053 30 5901ft 107kts
29-Jan-19 17:41 36.050837 -115.040283 28 5299ft 105kts
29-Jan-19 17:42 36.076872 -115.022247 25 5072ft 108kts
29-Jan-19 17:43 36.102730 -115.028077 310 4636ft 107kts
29-Jan-19 17:44 36.119066 -115.059046 312 4335ft 111kts
29-Jan-19 17:45 36.134734 -115.090465 302 4140ft 105kts
29-Jan-19 17:46 36.151893 -115.119552 311 3851ft 92kts
29-Jan-19 17:47 36.167293 -115.140088 314 3304ft 79kts
29-Jan-19 17:48 36.180306 -115.160415 245 3323ft 67kts
29-Jan-19 17:49 36.158750 -115.163598 175 3994ft 80kts
29-Jan-19 17:50 36.136101 -115.162513 176 4676ft 85kts
29-Jan-19 18:04 36.074650 -114.932605 241 5041ft 111kts
29-Jan-19 18:05 36.071750 -114.968828 273 4814ft 98kts
29-Jan-19 18:06 36.072066 -115.003156 274 4316ft 101kts
29-Jan-19 18:07 36.072647 -115.038254 273 3740ft 96kts
29-Jan-19 18:08 36.072752 -115.067353 272 3156ft 84kts
29-Jan-19 18:09 36.073245 -115.095664 279 2620ft 84kts
29-Jan-19 18:10 36.073571 -115.119598 271 2218ft 63kts
29-Jan-19 18:11 36.073710 -115.136842 270 2074ft 48kts
29-Jan-19 18:12 36.074674 -115.145860 297 2099ft 0kts
29-Jan-19 18:14 36.078536 -115.147761 263 2099ft 0kts
29-Jan-19 18:15 36.078536 -115.147761 263 2099ft 0kts
29-Jan-19 18:16 36.078566 -115.148459 277 2100ft 0kts
29-Jan-19 18:17 36.078780 -115.149397 357 2104ft 0kts
29-Jan-19 18:18 36.078771 -115.152209 265 2115ft 0kts
29-Jan-19 18:19 36.078788 -115.151781 349 2113ft 0kts
29-Jan-19 18:20 36.077580 -115.152257 197 2117ft 0kts
29-Jan-19 18:21 36.078059 -115.153306 276 2120ft 0kts
29-Jan-19 18:22 36.078059 -115.153305 276 2120ft 0kts

Navigation Log

Ident Type
Flight plan parsing failed, navigation log unavailable